sensor_id;sensor_type;location;lat;lon;timestamp;P1;durP1;ratioP1;P2;durP2;ratioP2
85065;SDS011;75401;52.588;13.224;2024-03-08T00:00:02;1.35;;;0.90;;
85065;SDS011;75401;52.588;13.224;2024-03-08T00:02:28;1.48;;;0.90;;
85065;SDS011;75401;52.588;13.224;2024-03-08T00:04:55;1.23;;;0.83;;
85065;SDS011;75401;52.588;13.224;2024-03-08T00:07:20;1.38;;;0.80;;
85065;SDS011;75401;52.588;13.224;2024-03-08T00:09:45;1.53;;;0.83;;
85065;SDS011;75401;52.588;13.224;2024-03-08T00:12:11;1.30;;;0.90;;
85065;SDS011;75401;52.588;13.224;2024-03-08T00:14:36;1.10;;;0.77;;
85065;SDS011;75401;52.588;13.224;2024-03-08T00:17:01;1.40;;;0.80;;
85065;SDS011;75401;52.588;13.224;2024-03-08T00:19:26;1.33;;;0.90;;
85065;SDS011;75401;52.588;13.224;2024-03-08T00:21:53;1.13;;;0.70;;
85065;SDS011;75401;52.588;13.224;2024-03-08T00:24:18;1.27;;;1.02;;
85065;SDS011;75401;52.588;13.224;2024-03-08T00:26:44;1.20;;;0.80;;
85065;SDS011;75401;52.588;13.224;2024-03-08T00:29:09;1.40;;;1.00;;
85065;SDS011;75401;52.588;13.224;2024-03-08T00:31:34;1.30;;;0.90;;
85065;SDS011;75401;52.588;13.224;2024-03-08T00:34:00;1.20;;;0.90;;
85065;SDS011;75401;52.588;13.224;2024-03-08T00:36:25;1.20;;;0.80;;
85065;SDS011;75401;52.588;13.224;2024-03-08T00:38:52;1.20;;;0.83;;
85065;SDS011;75401;52.588;13.224;2024-03-08T00:41:17;1.30;;;0.80;;
85065;SDS011;75401;52.588;13.224;2024-03-08T00:43:42;1.40;;;0.90;;
85065;SDS011;75401;52.588;13.224;2024-03-08T00:46:08;1.27;;;0.82;;
85065;SDS011;75401;52.588;13.224;2024-03-08T00:48:34;1.20;;;0.73;;
85065;SDS011;75401;52.588;13.224;2024-03-08T00:50:59;1.70;;;0.82;;
85065;SDS011;75401;52.588;13.224;2024-03-08T00:53:25;1.40;;;1.03;;
85065;SDS011;75401;52.588;13.224;2024-03-08T00:55:51;1.50;;;0.93;;
85065;SDS011;75401;52.588;13.224;2024-03-08T00:58:17;1.40;;;0.90;;
85065;SDS011;75401;52.588;13.224;2024-03-08T01:00:43;1.30;;;0.75;;
85065;SDS011;75401;52.588;13.224;2024-03-08T01:03:08;1.60;;;1.07;;
85065;SDS011;75401;52.588;13.224;2024-03-08T01:05:34;1.42;;;0.80;;
85065;SDS011;75401;52.588;13.224;2024-03-08T01:08:00;1.20;;;0.80;;
85065;SDS011;75401;52.588;13.224;2024-03-08T01:10:25;1.10;;;0.63;;
85065;SDS011;75401;52.588;13.224;2024-03-08T01:12:52;1.20;;;0.70;;
85065;SDS011;75401;52.588;13.224;2024-03-08T01:15:17;1.30;;;0.90;;
85065;SDS011;75401;52.588;13.224;2024-03-08T01:17:42;2.23;;;0.90;;
85065;SDS011;75401;52.588;13.224;2024-03-08T01:20:08;1.30;;;0.80;;
85065;SDS011;75401;52.588;13.224;2024-03-08T01:22:33;1.40;;;0.90;;
85065;SDS011;75401;52.588;13.224;2024-03-08T01:24:59;1.30;;;0.90;;
85065;SDS011;75401;52.588;13.224;2024-03-08T01:27:24;1.63;;;0.77;;
85065;SDS011;75401;52.588;13.224;2024-03-08T01:29:51;1.70;;;1.00;;
85065;SDS011;75401;52.588;13.224;2024-03-08T01:32:16;1.35;;;0.90;;
85065;SDS011;75401;52.588;13.224;2024-03-08T01:34:41;1.20;;;0.70;;
85065;SDS011;75401;52.588;13.224;2024-03-08T01:37:07;1.00;;;0.63;;
85065;SDS011;75401;52.588;13.224;2024-03-08T01:39:32;1.30;;;0.80;;
85065;SDS011;75401;52.588;13.224;2024-03-08T01:41:57;1.38;;;0.88;;
85065;SDS011;75401;52.588;13.224;2024-03-08T01:44:23;1.20;;;0.70;;
85065;SDS011;75401;52.588;13.224;2024-03-08T01:46:50;1.40;;;0.80;;
85065;SDS011;75401;52.588;13.224;2024-03-08T01:49:17;1.25;;;0.93;;
85065;SDS011;75401;52.588;13.224;2024-03-08T01:51:42;1.50;;;0.80;;
85065;SDS011;75401;52.588;13.224;2024-03-08T01:54:07;1.50;;;0.90;;
85065;SDS011;75401;52.588;13.224;2024-03-08T01:56:34;1.60;;;0.80;;
85065;SDS011;75401;52.588;13.224;2024-03-08T01:59:00;1.35;;;0.80;;
85065;SDS011;75401;52.588;13.224;2024-03-08T02:01:25;1.17;;;0.82;;
85065;SDS011;75401;52.588;13.224;2024-03-08T02:03:53;1.15;;;0.60;;
85065;SDS011;75401;52.588;13.224;2024-03-08T02:06:18;1.10;;;0.70;;
85065;SDS011;75401;52.588;13.224;2024-03-08T02:08:44;1.20;;;0.90;;
85065;SDS011;75401;52.588;13.224;2024-03-08T02:11:10;1.08;;;0.70;;
85065;SDS011;75401;52.588;13.224;2024-03-08T02:13:35;1.40;;;0.80;;
85065;SDS011;75401;52.588;13.224;2024-03-08T02:16:01;1.20;;;0.80;;
85065;SDS011;75401;52.588;13.224;2024-03-08T02:18:26;1.03;;;0.70;;
85065;SDS011;75401;52.588;13.224;2024-03-08T02:20:54;0.98;;;0.73;;
85065;SDS011;75401;52.588;13.224;2024-03-08T02:23:20;1.10;;;0.75;;
85065;SDS011;75401;52.588;13.224;2024-03-08T02:25:45;1.10;;;0.80;;
85065;SDS011;75401;52.588;13.224;2024-03-08T02:28:11;1.20;;;0.77;;
85065;SDS011;75401;52.588;13.224;2024-03-08T02:30:37;1.13;;;0.80;;
85065;SDS011;75401;52.588;13.224;2024-03-08T02:33:02;1.03;;;0.73;;
85065;SDS011;75401;52.588;13.224;2024-03-08T02:35:27;1.03;;;0.77;;
85065;SDS011;75401;52.588;13.224;2024-03-08T02:37:54;1.10;;;0.70;;
85065;SDS011;75401;52.588;13.224;2024-03-08T02:40:19;1.45;;;0.82;;
85065;SDS011;75401;52.588;13.224;2024-03-08T02:42:45;1.30;;;0.90;;
85065;SDS011;75401;52.588;13.224;2024-03-08T02:45:10;1.23;;;0.90;;
85065;SDS011;75401;52.588;13.224;2024-03-08T02:47:35;1.20;;;0.80;;
85065;SDS011;75401;52.588;13.224;2024-03-08T02:50:01;1.73;;;0.70;;
85065;SDS011;75401;52.588;13.224;2024-03-08T02:52:26;1.20;;;0.80;;
85065;SDS011;75401;52.588;13.224;2024-03-08T02:54:53;1.23;;;0.90;;
85065;SDS011;75401;52.588;13.224;2024-03-08T02:57:18;1.20;;;0.80;;
85065;SDS011;75401;52.588;13.224;2024-03-08T02:59:44;1.40;;;0.90;;
85065;SDS011;75401;52.588;13.224;2024-03-08T03:02:09;0.83;;;0.60;;
85065;SDS011;75401;52.588;13.224;2024-03-08T03:04:35;1.20;;;0.70;;
85065;SDS011;75401;52.588;13.224;2024-03-08T03:07:00;1.10;;;0.77;;
85065;SDS011;75401;52.588;13.224;2024-03-08T03:09:26;1.02;;;0.60;;
85065;SDS011;75401;52.588;13.224;2024-03-08T03:11:53;1.30;;;0.80;;
85065;SDS011;75401;52.588;13.224;2024-03-08T03:14:18;1.05;;;0.70;;
85065;SDS011;75401;52.588;13.224;2024-03-08T03:16:44;1.10;;;0.80;;
85065;SDS011;75401;52.588;13.224;2024-03-08T03:19:09;1.40;;;0.90;;
85065;SDS011;75401;52.588;13.224;2024-03-08T03:21:35;1.17;;;0.80;;
85065;SDS011;75401;52.588;13.224;2024-03-08T03:24:00;1.20;;;0.70;;
85065;SDS011;75401;52.588;13.224;2024-03-08T03:26:25;1.20;;;0.80;;
85065;SDS011;75401;52.588;13.224;2024-03-08T03:28:52;1.23;;;0.77;;
85065;SDS011;75401;52.588;13.224;2024-03-08T03:31:17;1.33;;;0.80;;
85065;SDS011;75401;52.588;13.224;2024-03-08T03:33:42;1.30;;;0.80;;
85065;SDS011;75401;52.588;13.224;2024-03-08T03:36:08;1.20;;;0.70;;
85065;SDS011;75401;52.588;13.224;2024-03-08T03:38:33;1.40;;;0.80;;
85065;SDS011;75401;52.588;13.224;2024-03-08T03:40:58;1.10;;;0.73;;
85065;SDS011;75401;52.588;13.224;2024-03-08T03:43:24;1.17;;;0.70;;
85065;SDS011;75401;52.588;13.224;2024-03-08T03:45:50;1.10;;;0.70;;
85065;SDS011;75401;52.588;13.224;2024-03-08T03:48:15;1.17;;;0.70;;
85065;SDS011;75401;52.588;13.224;2024-03-08T03:50:41;1.30;;;0.83;;
85065;SDS011;75401;52.588;13.224;2024-03-08T03:53:06;1.25;;;0.75;;
85065;SDS011;75401;52.588;13.224;2024-03-08T03:55:32;1.13;;;0.80;;
85065;SDS011;75401;52.588;13.224;2024-03-08T03:57:57;1.50;;;1.00;;
85065;SDS011;75401;52.588;13.224;2024-03-08T04:00:23;1.20;;;0.90;;
85065;SDS011;75401;52.588;13.224;2024-03-08T04:02:49;1.23;;;0.73;;
85065;SDS011;75401;52.588;13.224;2024-03-08T04:05:15;1.13;;;0.75;;
85065;SDS011;75401;52.588;13.224;2024-03-08T04:07:40;1.20;;;0.70;;
85065;SDS011;75401;52.588;13.224;2024-03-08T04:10:06;1.20;;;0.67;;
85065;SDS011;75401;52.588;13.224;2024-03-08T04:12:34;1.27;;;0.73;;
85065;SDS011;75401;52.588;13.224;2024-03-08T04:15:00;1.23;;;0.70;;
85065;SDS011;75401;52.588;13.224;2024-03-08T04:17:26;1.40;;;0.80;;
85065;SDS011;75401;52.588;13.224;2024-03-08T04:19:53;1.50;;;0.90;;
85065;SDS011;75401;52.588;13.224;2024-03-08T04:22:18;1.40;;;0.95;;
85065;SDS011;75401;52.588;13.224;2024-03-08T04:24:44;1.10;;;0.70;;
85065;SDS011;75401;52.588;13.224;2024-03-08T04:27:09;1.23;;;0.82;;
85065;SDS011;75401;52.588;13.224;2024-03-08T04:29:35;1.20;;;0.80;;
85065;SDS011;75401;52.588;13.224;2024-03-08T04:32:01;1.07;;;0.70;;
85065;SDS011;75401;52.588;13.224;2024-03-08T04:34:27;1.10;;;0.80;;
85065;SDS011;75401;52.588;13.224;2024-03-08T04:36:54;1.27;;;0.70;;
85065;SDS011;75401;52.588;13.224;2024-03-08T04:39:22;1.23;;;0.85;;
85065;SDS011;75401;52.588;13.224;2024-03-08T04:41:47;1.30;;;0.80;;
85065;SDS011;75401;52.588;13.224;2024-03-08T04:44:12;1.17;;;0.70;;
85065;SDS011;75401;52.588;13.224;2024-03-08T04:46:38;1.33;;;0.70;;
85065;SDS011;75401;52.588;13.224;2024-03-08T04:49:03;1.00;;;0.63;;
85065;SDS011;75401;52.588;13.224;2024-03-08T04:51:28;1.30;;;0.90;;
85065;SDS011;75401;52.588;13.224;2024-03-08T04:53:55;1.17;;;0.80;;
85065;SDS011;75401;52.588;13.224;2024-03-08T04:56:20;1.23;;;0.77;;
85065;SDS011;75401;52.588;13.224;2024-03-08T04:58:46;1.30;;;0.80;;
85065;SDS011;75401;52.588;13.224;2024-03-08T05:01:11;1.27;;;0.70;;
85065;SDS011;75401;52.588;13.224;2024-03-08T05:03:37;0.82;;;0.52;;
85065;SDS011;75401;52.588;13.224;2024-03-08T05:06:02;1.03;;;0.67;;
85065;SDS011;75401;52.588;13.224;2024-03-08T05:08:27;1.13;;;0.70;;
85065;SDS011;75401;52.588;13.224;2024-03-08T05:10:54;1.10;;;0.73;;
85065;SDS011;75401;52.588;13.224;2024-03-08T05:13:19;1.27;;;0.77;;
85065;SDS011;75401;52.588;13.224;2024-03-08T05:15:47;1.10;;;0.80;;
85065;SDS011;75401;52.588;13.224;2024-03-08T05:18:13;1.23;;;0.93;;
85065;SDS011;75401;52.588;13.224;2024-03-08T05:20:38;1.63;;;0.90;;
85065;SDS011;75401;52.588;13.224;2024-03-08T05:23:04;1.17;;;0.70;;
85065;SDS011;75401;52.588;13.224;2024-03-08T05:25:30;1.02;;;0.60;;
85065;SDS011;75401;52.588;13.224;2024-03-08T05:27:56;1.27;;;0.80;;
85065;SDS011;75401;52.588;13.224;2024-03-08T05:30:21;1.30;;;0.80;;
85065;SDS011;75401;52.588;13.224;2024-03-08T05:32:47;1.17;;;0.87;;
85065;SDS011;75401;52.588;13.224;2024-03-08T05:35:12;1.20;;;0.70;;
85065;SDS011;75401;52.588;13.224;2024-03-08T05:37:37;1.40;;;0.80;;
85065;SDS011;75401;52.588;13.224;2024-03-08T05:40:03;1.02;;;0.70;;
85065;SDS011;75401;52.588;13.224;2024-03-08T05:42:29;1.50;;;0.80;;
85065;SDS011;75401;52.588;13.224;2024-03-08T05:44:56;1.20;;;0.90;;
85065;SDS011;75401;52.588;13.224;2024-03-08T05:47:21;1.10;;;0.70;;
85065;SDS011;75401;52.588;13.224;2024-03-08T05:49:47;1.03;;;0.70;;
85065;SDS011;75401;52.588;13.224;2024-03-08T05:52:12;1.23;;;0.73;;
85065;SDS011;75401;52.588;13.224;2024-03-08T05:54:37;1.30;;;0.73;;
85065;SDS011;75401;52.588;13.224;2024-03-08T05:57:03;1.40;;;0.90;;
85065;SDS011;75401;52.588;13.224;2024-03-08T05:59:28;1.20;;;0.70;;
85065;SDS011;75401;52.588;13.224;2024-03-08T06:01:55;1.67;;;1.17;;
85065;SDS011;75401;52.588;13.224;2024-03-08T06:04:20;1.17;;;0.80;;
85065;SDS011;75401;52.588;13.224;2024-03-08T06:06:46;1.50;;;0.77;;
85065;SDS011;75401;52.588;13.224;2024-03-08T06:09:11;1.30;;;0.90;;
85065;SDS011;75401;52.588;13.224;2024-03-08T06:11:36;1.30;;;0.80;;
85065;SDS011;75401;52.588;13.224;2024-03-08T06:14:02;1.10;;;0.70;;
85065;SDS011;75401;52.588;13.224;2024-03-08T06:16:27;1.30;;;0.90;;
85065;SDS011;75401;52.588;13.224;2024-03-08T06:18:54;1.37;;;0.90;;
85065;SDS011;75401;52.588;13.224;2024-03-08T06:21:19;1.38;;;1.02;;
85065;SDS011;75401;52.588;13.224;2024-03-08T06:23:45;1.13;;;0.80;;
85065;SDS011;75401;52.588;13.224;2024-03-08T06:26:10;1.73;;;1.00;;
85065;SDS011;75401;52.588;13.224;2024-03-08T06:28:35;1.40;;;0.90;;
85065;SDS011;75401;52.588;13.224;2024-03-08T06:31:01;1.58;;;0.88;;
85065;SDS011;75401;52.588;13.224;2024-03-08T06:33:27;1.50;;;0.90;;
85065;SDS011;75401;52.588;13.224;2024-03-08T06:35:55;1.52;;;1.02;;
85065;SDS011;75401;52.588;13.224;2024-03-08T06:38:20;1.70;;;1.10;;
85065;SDS011;75401;52.588;13.224;2024-03-08T06:40:45;1.37;;;0.87;;
85065;SDS011;75401;52.588;13.224;2024-03-08T06:43:11;1.67;;;1.10;;
85065;SDS011;75401;52.588;13.224;2024-03-08T06:45:36;1.60;;;1.00;;
85065;SDS011;75401;52.588;13.224;2024-03-08T06:48:01;1.70;;;1.10;;
85065;SDS011;75401;52.588;13.224;2024-03-08T06:50:27;1.38;;;0.98;;
85065;SDS011;75401;52.588;13.224;2024-03-08T06:52:54;1.33;;;0.90;;
85065;SDS011;75401;52.588;13.224;2024-03-08T06:55:19;1.17;;;0.82;;
85065;SDS011;75401;52.588;13.224;2024-03-08T06:57:45;1.42;;;1.00;;
85065;SDS011;75401;52.588;13.224;2024-03-08T07:00:10;1.40;;;1.10;;
85065;SDS011;75401;52.588;13.224;2024-03-08T07:02:37;1.35;;;0.95;;
85065;SDS011;75401;52.588;13.224;2024-03-08T07:05:02;1.52;;;1.20;;
85065;SDS011;75401;52.588;13.224;2024-03-08T07:07:28;1.40;;;1.00;;
85065;SDS011;75401;52.588;13.224;2024-03-08T07:09:54;1.60;;;1.10;;
85065;SDS011;75401;52.588;13.224;2024-03-08T07:12:20;1.75;;;1.20;;
85065;SDS011;75401;52.588;13.224;2024-03-08T07:14:45;1.43;;;1.03;;
85065;SDS011;75401;52.588;13.224;2024-03-08T07:17:11;1.33;;;1.00;;
85065;SDS011;75401;52.588;13.224;2024-03-08T07:19:37;1.60;;;1.33;;
85065;SDS011;75401;52.588;13.224;2024-03-08T07:22:02;1.53;;;1.10;;
85065;SDS011;75401;52.588;13.224;2024-03-08T07:24:28;1.70;;;1.00;;
85065;SDS011;75401;52.588;13.224;2024-03-08T07:26:54;1.37;;;0.93;;
85065;SDS011;75401;52.588;13.224;2024-03-08T07:29:20;1.83;;;1.08;;
85065;SDS011;75401;52.588;13.224;2024-03-08T07:31:45;1.50;;;1.10;;
85065;SDS011;75401;52.588;13.224;2024-03-08T07:34:10;1.43;;;0.93;;
85065;SDS011;75401;52.588;13.224;2024-03-08T07:36:36;1.73;;;1.40;;
85065;SDS011;75401;52.588;13.224;2024-03-08T07:39:01;1.40;;;0.90;;
85065;SDS011;75401;52.588;13.224;2024-03-08T07:41:26;1.70;;;1.13;;
85065;SDS011;75401;52.588;13.224;2024-03-08T07:43:53;2.00;;;1.10;;
85065;SDS011;75401;52.588;13.224;2024-03-08T07:46:18;1.50;;;1.15;;
85065;SDS011;75401;52.588;13.224;2024-03-08T07:48:44;1.60;;;1.00;;
85065;SDS011;75401;52.588;13.224;2024-03-08T07:51:09;1.50;;;1.00;;
85065;SDS011;75401;52.588;13.224;2024-03-08T07:53:34;1.70;;;1.17;;
85065;SDS011;75401;52.588;13.224;2024-03-08T07:56:00;1.60;;;1.00;;
85065;SDS011;75401;52.588;13.224;2024-03-08T07:58:25;1.50;;;1.00;;
85065;SDS011;75401;52.588;13.224;2024-03-08T08:00:52;1.80;;;1.40;;
85065;SDS011;75401;52.588;13.224;2024-03-08T08:03:17;1.70;;;1.05;;
85065;SDS011;75401;52.588;13.224;2024-03-08T08:05:42;1.53;;;1.20;;
85065;SDS011;75401;52.588;13.224;2024-03-08T08:08:08;1.85;;;1.10;;
85065;SDS011;75401;52.588;13.224;2024-03-08T08:10:33;1.55;;;1.30;;
85065;SDS011;75401;52.588;13.224;2024-03-08T08:12:59;1.53;;;1.10;;
85065;SDS011;75401;52.588;13.224;2024-03-08T08:15:24;1.70;;;1.33;;
85065;SDS011;75401;52.588;13.224;2024-03-08T08:17:51;1.50;;;1.13;;
85065;SDS011;75401;52.588;13.224;2024-03-08T08:20:16;1.60;;;1.10;;
85065;SDS011;75401;52.588;13.224;2024-03-08T08:22:41;2.03;;;1.20;;
85065;SDS011;75401;52.588;13.224;2024-03-08T08:25:07;1.27;;;0.90;;
85065;SDS011;75401;52.588;13.224;2024-03-08T08:27:33;1.80;;;1.00;;
85065;SDS011;75401;52.588;13.224;2024-03-08T08:29:58;1.55;;;1.17;;
85065;SDS011;75401;52.588;13.224;2024-03-08T08:32:24;1.63;;;1.10;;
85065;SDS011;75401;52.588;13.224;2024-03-08T08:34:51;1.50;;;1.30;;
85065;SDS011;75401;52.588;13.224;2024-03-08T08:37:16;1.75;;;1.20;;
85065;SDS011;75401;52.588;13.224;2024-03-08T08:39:41;1.30;;;1.00;;
85065;SDS011;75401;52.588;13.224;2024-03-08T08:42:07;1.53;;;1.03;;
85065;SDS011;75401;52.588;13.224;2024-03-08T08:44:33;1.50;;;1.20;;
85065;SDS011;75401;52.588;13.224;2024-03-08T08:46:58;1.40;;;1.00;;
85065;SDS011;75401;52.588;13.224;2024-03-08T08:49:23;1.77;;;1.20;;
85065;SDS011;75401;52.588;13.224;2024-03-08T08:51:50;1.60;;;1.27;;
85065;SDS011;75401;52.588;13.224;2024-03-08T08:54:15;1.52;;;1.00;;
85065;SDS011;75401;52.588;13.224;2024-03-08T08:56:41;1.50;;;1.10;;
85065;SDS011;75401;52.588;13.224;2024-03-08T08:59:06;1.60;;;1.10;;
85065;SDS011;75401;52.588;13.224;2024-03-08T09:01:32;1.63;;;1.20;;
85065;SDS011;75401;52.588;13.224;2024-03-08T09:03:57;1.33;;;1.00;;
85065;SDS011;75401;52.588;13.224;2024-03-08T09:06:22;1.40;;;0.80;;
85065;SDS011;75401;52.588;13.224;2024-03-08T09:08:49;1.40;;;1.00;;
85065;SDS011;75401;52.588;13.224;2024-03-08T09:11:14;1.60;;;1.10;;
85065;SDS011;75401;52.588;13.224;2024-03-08T09:13:40;1.33;;;0.97;;
85065;SDS011;75401;52.588;13.224;2024-03-08T09:16:05;1.23;;;0.87;;
85065;SDS011;75401;52.588;13.224;2024-03-08T09:18:30;1.40;;;1.00;;
85065;SDS011;75401;52.588;13.224;2024-03-08T09:20:56;1.30;;;1.00;;
85065;SDS011;75401;52.588;13.224;2024-03-08T09:23:21;1.47;;;0.97;;
85065;SDS011;75401;52.588;13.224;2024-03-08T09:25:48;1.50;;;0.90;;
85065;SDS011;75401;52.588;13.224;2024-03-08T09:28:14;1.40;;;1.00;;
85065;SDS011;75401;52.588;13.224;2024-03-08T09:30:39;1.40;;;0.90;;
85065;SDS011;75401;52.588;13.224;2024-03-08T09:33:04;1.60;;;1.08;;
85065;SDS011;75401;52.588;13.224;2024-03-08T09:35:30;1.50;;;1.00;;
85065;SDS011;75401;52.588;13.224;2024-03-08T09:37:55;1.37;;;0.90;;
85065;SDS011;75401;52.588;13.224;2024-03-08T09:40:20;1.90;;;0.90;;
85065;SDS011;75401;52.588;13.224;2024-03-08T09:42:48;1.50;;;1.02;;
85065;SDS011;75401;52.588;13.224;2024-03-08T09:45:14;1.20;;;0.90;;
85065;SDS011;75401;52.588;13.224;2024-03-08T09:47:39;1.47;;;1.10;;
85065;SDS011;75401;52.588;13.224;2024-03-08T09:50:06;1.40;;;1.10;;
85065;SDS011;75401;52.588;13.224;2024-03-08T09:52:32;1.40;;;0.93;;
85065;SDS011;75401;52.588;13.224;2024-03-08T09:54:58;1.35;;;1.02;;
85065;SDS011;75401;52.588;13.224;2024-03-08T09:57:23;1.40;;;1.00;;
85065;SDS011;75401;52.588;13.224;2024-03-08T09:59:51;1.30;;;0.88;;
85065;SDS011;75401;52.588;13.224;2024-03-08T10:02:16;1.60;;;1.00;;
85065;SDS011;75401;52.588;13.224;2024-03-08T10:04:42;1.23;;;0.87;;
85065;SDS011;75401;52.588;13.224;2024-03-08T10:07:07;1.67;;;0.95;;
85065;SDS011;75401;52.588;13.224;2024-03-08T10:09:33;1.30;;;0.83;;
85065;SDS011;75401;52.588;13.224;2024-03-08T10:11:58;1.40;;;1.00;;
85065;SDS011;75401;52.588;13.224;2024-03-08T10:14:24;1.30;;;0.93;;
85065;SDS011;75401;52.588;13.224;2024-03-08T10:16:51;1.52;;;1.00;;
85065;SDS011;75401;52.588;13.224;2024-03-08T10:19:16;1.50;;;1.00;;
85065;SDS011;75401;52.588;13.224;2024-03-08T10:21:51;1.50;;;1.10;;
85065;SDS011;75401;52.588;13.224;2024-03-08T10:24:17;1.30;;;0.90;;
85065;SDS011;75401;52.588;13.224;2024-03-08T10:26:42;1.55;;;1.00;;
85065;SDS011;75401;52.588;13.224;2024-03-08T10:29:07;1.33;;;0.90;;
85065;SDS011;75401;52.588;13.224;2024-03-08T10:31:33;1.30;;;1.00;;
85065;SDS011;75401;52.588;13.224;2024-03-08T10:34:00;1.40;;;1.07;;
85065;SDS011;75401;52.588;13.224;2024-03-08T10:36:25;1.25;;;0.95;;
85065;SDS011;75401;52.588;13.224;2024-03-08T10:38:53;1.50;;;1.00;;
85065;SDS011;75401;52.588;13.224;2024-03-08T10:41:18;1.13;;;0.83;;
85065;SDS011;75401;52.588;13.224;2024-03-08T10:43:48;1.40;;;1.00;;
85065;SDS011;75401;52.588;13.224;2024-03-08T10:46:26;1.30;;;0.95;;
85065;SDS011;75401;52.588;13.224;2024-03-08T10:49:01;1.13;;;0.90;;
85065;SDS011;75401;52.588;13.224;2024-03-08T10:51:33;1.02;;;0.63;;
85065;SDS011;75401;52.588;13.224;2024-03-08T10:54:00;1.40;;;1.00;;
85065;SDS011;75401;52.588;13.224;2024-03-08T10:56:27;1.38;;;0.93;;
85065;SDS011;75401;52.588;13.224;2024-03-08T10:58:52;1.20;;;0.80;;
85065;SDS011;75401;52.588;13.224;2024-03-08T11:01:18;1.35;;;0.88;;
85065;SDS011;75401;52.588;13.224;2024-03-08T11:03:44;1.38;;;0.88;;
85065;SDS011;75401;52.588;13.224;2024-03-08T11:06:14;1.30;;;0.80;;
85065;SDS011;75401;52.588;13.224;2024-03-08T11:08:41;1.20;;;0.80;;
85065;SDS011;75401;52.588;13.224;2024-03-08T11:11:06;1.15;;;0.82;;
85065;SDS011;75401;52.588;13.224;2024-03-08T11:13:48;1.30;;;0.90;;
85065;SDS011;75401;52.588;13.224;2024-03-08T11:19:05;1.20;;;0.80;;
85065;SDS011;75401;52.588;13.224;2024-03-08T11:21:50;1.10;;;0.70;;
85065;SDS011;75401;52.588;13.224;2024-03-08T11:24:22;1.10;;;0.70;;
85065;SDS011;75401;52.588;13.224;2024-03-08T11:26:47;1.10;;;0.80;;
85065;SDS011;75401;52.588;13.224;2024-03-08T11:29:32;1.13;;;0.75;;
85065;SDS011;75401;52.588;13.224;2024-03-08T11:32:03;1.50;;;0.80;;
85065;SDS011;75401;52.588;13.224;2024-03-08T11:34:29;1.00;;;0.70;;
85065;SDS011;75401;52.588;13.224;2024-03-08T11:36:55;1.20;;;0.80;;
85065;SDS011;75401;52.588;13.224;2024-03-08T11:39:21;1.23;;;0.75;;
85065;SDS011;75401;52.588;13.224;2024-03-08T11:41:47;1.20;;;0.70;;
85065;SDS011;75401;52.588;13.224;2024-03-08T11:44:13;1.17;;;0.80;;
85065;SDS011;75401;52.588;13.224;2024-03-08T11:46:38;1.20;;;0.80;;
85065;SDS011;75401;52.588;13.224;2024-03-08T11:49:04;1.10;;;0.80;;
85065;SDS011;75401;52.588;13.224;2024-03-08T11:51:29;0.90;;;0.60;;
85065;SDS011;75401;52.588;13.224;2024-03-08T11:53:56;1.10;;;0.70;;
85065;SDS011;75401;52.588;13.224;2024-03-08T11:56:21;0.95;;;0.60;;
85065;SDS011;75401;52.588;13.224;2024-03-08T11:58:52;1.02;;;0.60;;
85065;SDS011;75401;52.588;13.224;2024-03-08T12:01:18;1.00;;;0.60;;
85065;SDS011;75401;52.588;13.224;2024-03-08T12:03:44;0.90;;;0.60;;
85065;SDS011;75401;52.588;13.224;2024-03-08T12:06:18;1.20;;;0.80;;
85065;SDS011;75401;52.588;13.224;2024-03-08T12:08:43;1.23;;;0.90;;
85065;SDS011;75401;52.588;13.224;2024-03-08T12:11:12;1.10;;;0.70;;
85065;SDS011;75401;52.588;13.224;2024-03-08T12:13:37;1.20;;;0.80;;
85065;SDS011;75401;52.588;13.224;2024-03-08T12:16:03;1.08;;;0.70;;
85065;SDS011;75401;52.588;13.224;2024-03-08T12:18:32;1.13;;;0.80;;
85065;SDS011;75401;52.588;13.224;2024-03-08T12:21:04;1.40;;;0.80;;
85065;SDS011;75401;52.588;13.224;2024-03-08T12:23:31;1.20;;;0.90;;
85065;SDS011;75401;52.588;13.224;2024-03-08T12:25:56;1.20;;;0.80;;
85065;SDS011;75401;52.588;13.224;2024-03-08T12:28:23;1.20;;;0.70;;
85065;SDS011;75401;52.588;13.224;2024-03-08T12:30:49;1.20;;;0.70;;
85065;SDS011;75401;52.588;13.224;2024-03-08T12:33:15;1.10;;;0.77;;
85065;SDS011;75401;52.588;13.224;2024-03-08T12:35:40;1.23;;;0.90;;
85065;SDS011;75401;52.588;13.224;2024-03-08T12:38:06;1.05;;;0.75;;
85065;SDS011;75401;52.588;13.224;2024-03-08T12:40:32;1.17;;;0.80;;
85065;SDS011;75401;52.588;13.224;2024-03-08T12:42:58;1.33;;;0.80;;
85065;SDS011;75401;52.588;13.224;2024-03-08T12:45:24;1.17;;;0.80;;
85065;SDS011;75401;52.588;13.224;2024-03-08T12:47:50;1.15;;;0.80;;
85065;SDS011;75401;52.588;13.224;2024-03-08T12:50:16;1.20;;;0.80;;
85065;SDS011;75401;52.588;13.224;2024-03-08T12:52:41;1.20;;;0.80;;
85065;SDS011;75401;52.588;13.224;2024-03-08T12:55:06;1.20;;;0.90;;
85065;SDS011;75401;52.588;13.224;2024-03-08T12:57:32;1.15;;;0.80;;
85065;SDS011;75401;52.588;13.224;2024-03-08T12:59:58;1.00;;;0.80;;
85065;SDS011;75401;52.588;13.224;2024-03-08T13:02:25;1.13;;;0.80;;
85065;SDS011;75401;52.588;13.224;2024-03-08T13:04:50;1.10;;;0.80;;
85065;SDS011;75401;52.588;13.224;2024-03-08T13:07:16;1.20;;;0.80;;
85065;SDS011;75401;52.588;13.224;2024-03-08T13:09:41;1.20;;;0.80;;
85065;SDS011;75401;52.588;13.224;2024-03-08T13:12:07;1.30;;;0.90;;
85065;SDS011;75401;52.588;13.224;2024-03-08T13:14:32;1.30;;;0.80;;
85065;SDS011;75401;52.588;13.224;2024-03-08T13:16:57;1.20;;;0.90;;
85065;SDS011;75401;52.588;13.224;2024-03-08T13:19:24;1.30;;;0.80;;
85065;SDS011;75401;52.588;13.224;2024-03-08T13:21:49;1.77;;;0.80;;
85065;SDS011;75401;52.588;13.224;2024-03-08T13:24:15;1.00;;;0.70;;
85065;SDS011;75401;52.588;13.224;2024-03-08T13:26:40;1.30;;;0.70;;
85065;SDS011;75401;52.588;13.224;2024-03-08T13:29:05;1.30;;;0.90;;
85065;SDS011;75401;52.588;13.224;2024-03-08T13:31:31;1.20;;;0.80;;
85065;SDS011;75401;52.588;13.224;2024-03-08T13:33:56;1.27;;;0.80;;
85065;SDS011;75401;52.588;13.224;2024-03-08T13:36:23;1.00;;;0.80;;
85065;SDS011;75401;52.588;13.224;2024-03-08T13:38:48;1.88;;;0.80;;
85065;SDS011;75401;52.588;13.224;2024-03-08T13:41:14;1.10;;;0.70;;
85065;SDS011;75401;52.588;13.224;2024-03-08T13:43:41;1.40;;;0.88;;
85065;SDS011;75401;52.588;13.224;2024-03-08T13:46:06;1.05;;;0.70;;
85065;SDS011;75401;52.588;13.224;2024-03-08T13:48:32;1.20;;;0.70;;
85065;SDS011;75401;52.588;13.224;2024-03-08T13:50:58;1.33;;;0.90;;
85065;SDS011;75401;52.588;13.224;2024-03-08T13:53:24;1.17;;;0.70;;
85065;SDS011;75401;52.588;13.224;2024-03-08T13:55:50;1.23;;;0.73;;
85065;SDS011;75401;52.588;13.224;2024-03-08T13:58:15;1.30;;;0.82;;
85065;SDS011;75401;52.588;13.224;2024-03-08T14:00:40;1.20;;;0.80;;
85065;SDS011;75401;52.588;13.224;2024-03-08T14:03:06;1.10;;;0.63;;
85065;SDS011;75401;52.588;13.224;2024-03-08T14:05:31;1.20;;;0.80;;
85065;SDS011;75401;52.588;13.224;2024-03-08T14:07:56;1.20;;;0.80;;
85065;SDS011;75401;52.588;13.224;2024-03-08T14:10:23;1.10;;;0.70;;
85065;SDS011;75401;52.588;13.224;2024-03-08T14:12:48;1.20;;;0.80;;
85065;SDS011;75401;52.588;13.224;2024-03-08T14:15:14;1.00;;;0.70;;
85065;SDS011;75401;52.588;13.224;2024-03-08T14:17:39;1.15;;;0.70;;
85065;SDS011;75401;52.588;13.224;2024-03-08T14:20:05;1.20;;;0.97;;
85065;SDS011;75401;52.588;13.224;2024-03-08T14:22:31;1.20;;;0.90;;
85065;SDS011;75401;52.588;13.224;2024-03-08T14:24:56;1.20;;;0.87;;
85065;SDS011;75401;52.588;13.224;2024-03-08T14:27:23;1.10;;;0.80;;